createdAt,value
2019-04-14T00:04:20.292Z,100693.80
2019-04-14T00:09:25.160Z,100680.52
2019-04-14T00:14:29.357Z,100680.52
2019-04-14T00:19:33.019Z,100680.08
2019-04-14T00:24:36.580Z,100674.23
2019-04-14T00:29:41.352Z,100678.52
2019-04-14T00:35:03.899Z,100673.59
2019-04-14T00:40:10.426Z,100674.55
2019-04-14T00:45:40.459Z,100670.72
2019-04-14T00:50:36.619Z,100671.37
2019-04-14T00:55:40.199Z,100672.08
2019-04-14T01:00:45.045Z,100668.74
2019-04-14T01:05:48.746Z,100661.75
2019-04-14T01:10:52.359Z,100664.51
2019-04-14T01:16:03.977Z,100661.02
2019-04-14T01:21:02.414Z,100666.38
2019-04-14T01:26:07.205Z,100669.03
2019-04-14T01:31:11.882Z,100662.44
2019-04-14T01:36:16.932Z,100663.61
2019-04-14T01:41:21.682Z,100659.09
2019-04-14T01:46:28.370Z,100648.16
2019-04-14T01:51:41.741Z,100644.36
2019-04-14T01:57:04.604Z,100645.98
2019-04-14T02:02:09.791Z,100646.02
2019-04-14T02:07:14.504Z,100643.23
2019-04-14T02:12:19.210Z,100643.96
2019-04-14T02:17:24.104Z,100643.00
2019-04-14T02:22:28.829Z,100645.95
2019-04-14T02:27:33.867Z,100644.13
2019-04-14T02:33:05.377Z,100643.20
2019-04-14T02:38:14.284Z,100647.28
2019-04-14T02:48:38.380Z,100657.09
2019-04-14T02:53:27.147Z,100651.84
2019-04-14T02:58:38.462Z,100651.00
2019-04-14T03:08:55.062Z,100642.08
2019-04-14T03:13:51.101Z,100646.28
2019-04-14T03:19:06.752Z,100644.67
2019-04-14T03:24:15.850Z,100646.00
2019-04-14T03:29:36.455Z,100647.18
2019-04-14T03:34:58.155Z,100638.12
2019-04-14T03:44:41.531Z,100649.05
2019-04-14T03:49:48.437Z,100652.52
2019-04-14T03:54:44.399Z,100650.60
2019-04-14T03:59:30.319Z,100658.28
2019-04-14T04:04:33.973Z,100661.47
2019-04-14T04:09:39.133Z,100664.14
2019-04-14T04:14:42.715Z,100659.30
2019-04-14T04:19:51.398Z,100658.50
2019-04-14T04:25:00.781Z,100664.27
2019-04-14T04:30:23.877Z,100660.36
2019-04-14T04:35:32.545Z,100654.16
2019-04-14T04:40:37.483Z,100659.90
2019-04-14T04:45:41.229Z,100666.31
2019-04-14T04:50:45.351Z,100664.00
2019-04-14T04:55:50.271Z,100664.05
2019-04-14T05:00:55.723Z,100662.08
2019-04-14T05:06:09.309Z,100665.75
2019-04-14T05:11:20.911Z,100669.58
2019-04-14T05:16:24.540Z,100668.86
2019-04-14T05:21:28.142Z,100678.04
2019-04-14T05:26:33.011Z,100680.45
2019-04-14T05:31:36.776Z,100683.63
2019-04-14T05:36:41.150Z,100693.39
2019-04-14T05:41:56.849Z,100683.00
2019-04-14T05:46:51.297Z,100693.52
2019-04-14T05:51:55.060Z,100692.91
2019-04-14T05:56:58.643Z,100694.31
2019-04-14T06:02:02.640Z,100700.11
2019-04-14T06:07:06.292Z,100693.03
2019-04-14T06:12:09.923Z,100699.24
2019-04-14T06:17:13.478Z,100703.20
2019-04-14T06:22:17.079Z,100702.75
2019-04-14T06:27:20.639Z,100707.13
2019-04-14T06:32:37.977Z,100700.92
2019-04-14T06:37:49.279Z,100697.67
2019-04-14T06:42:52.945Z,100704.04
2019-04-14T06:47:57.123Z,100697.66
2019-04-14T06:53:00.720Z,100701.11
2019-04-14T06:58:04.725Z,100706.69
2019-04-14T07:03:08.335Z,100709.27
2019-04-14T07:08:11.924Z,100716.33
2019-04-14T07:13:15.494Z,100720.52
2019-04-14T07:18:20.617Z,100731.45
2019-04-14T07:23:24.226Z,100726.11
2019-04-14T07:28:27.796Z,100726.23
2019-04-14T07:33:35.992Z,100735.06
2019-04-14T07:38:43.907Z,100736.37
2019-04-14T07:44:01.656Z,100734.04
2019-04-14T07:49:23.295Z,100740.71
2019-04-14T07:54:31.453Z,100740.55
2019-04-14T07:59:55.442Z,100749.18
2019-04-14T08:05:00.566Z,100744.98
2019-04-14T08:10:07.597Z,100745.45
2019-04-14T08:15:11.558Z,100741.22
2019-04-14T08:20:26.695Z,100749.66
2019-04-14T08:25:20.841Z,100755.05
2019-04-14T08:30:24.455Z,100754.11
2019-04-14T08:35:28.022Z,100742.43
2019-04-14T08:40:31.648Z,100742.43
2019-04-14T08:45:36.783Z,100749.88
2019-04-14T08:50:41.942Z,100753.76
2019-04-14T08:55:56.006Z,100758.33
2019-04-14T09:01:03.949Z,100756.50
2019-04-14T09:06:25.352Z,100753.31
2019-04-14T09:11:36.369Z,100767.73
2019-04-14T09:16:39.996Z,100761.97
2019-04-14T09:21:43.562Z,100763.64
2019-04-14T09:26:47.246Z,100759.64
2019-04-14T09:31:51.128Z,100758.05
2019-04-14T09:36:54.738Z,100765.44
2019-04-14T09:41:58.300Z,100760.77
2019-04-14T09:47:01.915Z,100749.80
2019-04-14T09:52:05.489Z,100754.71
2019-04-14T09:57:09.065Z,100758.03
2019-04-14T10:02:12.683Z,100764.84
2019-04-14T10:07:16.253Z,100757.40
2019-04-14T10:12:19.872Z,100770.36
2019-04-14T10:17:23.446Z,100766.03
2019-04-14T10:22:33.801Z,100774.04
2019-04-14T10:27:32.365Z,100773.22
2019-04-14T10:32:35.979Z,100775.08
2019-04-14T10:37:39.542Z,100771.59
2019-04-14T10:42:43.162Z,100772.08
2019-04-14T10:47:46.725Z,100770.77
2019-04-14T10:52:50.996Z,100769.42
2019-04-14T10:57:54.557Z,100768.84
2019-04-14T11:02:58.163Z,100766.13
2019-04-14T11:08:01.742Z,100765.48
2019-04-14T11:13:05.346Z,100755.37
2019-04-14T11:18:09.024Z,100750.90
2019-04-14T11:23:13.623Z,100739.95
2019-04-14T11:28:17.419Z,100745.12
2019-04-14T11:33:37.661Z,100753.50
2019-04-14T11:38:45.862Z,100762.95
2019-04-14T11:43:49.473Z,100754.41
2019-04-14T11:48:53.019Z,100754.00
2019-04-14T11:53:56.635Z,100750.19
2019-04-14T11:59:00.499Z,100746.14
2019-04-14T12:04:16.099Z,100752.58
2019-04-14T12:09:24.332Z,100744.76
2019-04-14T12:14:27.980Z,100747.28
2019-04-14T12:19:31.626Z,100757.75
2019-04-14T12:24:35.247Z,100745.61
2019-04-14T12:29:39.090Z,100751.34
2019-04-14T12:34:42.901Z,100748.87
2019-04-14T12:39:46.471Z,100748.64
2019-04-14T12:45:07.680Z,100754.59
2019-04-14T12:50:27.943Z,100758.33
2019-04-14T12:55:31.500Z,100748.22
2019-04-14T13:00:39.620Z,100747.89
2019-04-14T13:05:43.447Z,100739.60
2019-04-14T13:10:47.278Z,100734.79
2019-04-14T13:15:51.001Z,100736.59
2019-04-14T13:20:54.619Z,100743.69
2019-04-14T13:25:58.234Z,100744.15
2019-04-14T13:31:01.797Z,100739.70
2019-04-14T13:36:05.438Z,100734.41
2019-04-14T13:41:08.991Z,100735.65
2019-04-14T13:46:12.601Z,100733.25
2019-04-14T13:51:16.165Z,100729.07
2019-04-14T13:56:19.800Z,100727.72
2019-04-14T14:01:23.323Z,100733.07
2019-04-14T14:06:27.271Z,100723.80
2019-04-14T14:11:35.417Z,100724.28
2019-04-14T14:16:40.583Z,100730.12
2019-04-14T14:21:48.601Z,100736.45
2019-04-14T14:26:56.830Z,100738.39
2019-04-14T14:32:02.081Z,100737.57
2019-04-14T14:37:05.761Z,100746.08
2019-04-14T14:42:09.430Z,100748.42
2019-04-14T14:47:17.553Z,100744.48
2019-04-14T14:52:21.991Z,100748.97
2019-04-14T14:57:25.935Z,100747.27
2019-04-14T15:02:29.553Z,100744.69
2019-04-14T15:07:33.186Z,100739.37
2019-04-14T15:12:38.368Z,100748.73
2019-04-14T15:17:42.166Z,100740.80
2019-04-14T15:22:46.363Z,100743.47
2019-04-14T15:27:50.866Z,100747.53
2019-04-14T15:32:54.855Z,100753.32
2019-04-14T15:37:58.455Z,100748.92
2019-04-14T15:43:02.239Z,100748.00
2019-04-14T15:48:05.870Z,100751.09
2019-04-14T15:53:09.563Z,100757.28
2019-04-14T15:58:14.738Z,100760.75
2019-04-14T16:03:19.871Z,100754.29
2019-04-14T16:08:40.146Z,100759.78
2019-04-14T16:13:45.928Z,100767.03
2019-04-14T16:18:51.539Z,100762.23
2019-04-14T16:23:57.349Z,100762.77
2019-04-14T16:34:45.462Z,100769.58
2019-04-14T16:39:49.050Z,100779.03
2019-04-14T16:44:52.603Z,100779.65
2019-04-14T16:49:56.221Z,100785.09
2019-04-14T16:55:01.372Z,100786.59
2019-04-14T17:00:06.297Z,100786.69
2019-04-14T17:05:09.959Z,100802.67
2019-04-14T17:10:13.573Z,100813.34
2019-04-14T17:15:31.058Z,100811.66
2019-04-14T17:20:39.465Z,100817.48
2019-04-14T17:25:44.631Z,100815.28
2019-04-14T17:31:01.550Z,100820.66
2019-04-14T17:36:06.770Z,100829.99
2019-04-14T17:41:12.176Z,100834.00
2019-04-14T17:46:33.999Z,100837.51
2019-04-14T17:51:39.155Z,100843.31
2019-04-14T17:57:00.909Z,100850.84
2019-04-14T18:02:06.446Z,100848.53
2019-04-14T18:07:17.470Z,100840.37
2019-04-14T18:12:25.467Z,100871.13
2019-04-14T18:17:47.095Z,100882.84
2019-04-14T18:22:51.088Z,100897.34
2019-04-14T18:27:59.238Z,100906.39
2019-04-14T18:33:20.699Z,100908.41
2019-04-14T18:38:41.459Z,100919.95
2019-04-14T18:43:46.646Z,100920.99
2019-04-14T18:48:51.915Z,100938.35
2019-04-14T18:53:57.122Z,100940.66
2019-04-14T18:59:18.587Z,100952.66
2019-04-14T19:04:22.159Z,100966.42
2019-04-14T19:09:26.666Z,100969.52
2019-04-14T19:14:32.627Z,100968.18
2019-04-14T19:19:38.380Z,100982.36
2019-04-14T19:24:45.272Z,100980.57
2019-04-14T19:29:50.765Z,100988.52
2019-04-14T19:34:55.914Z,100992.06
2019-04-14T19:40:02.004Z,100991.61
2019-04-14T19:45:07.714Z,101000.46
2019-04-14T19:50:11.899Z,101000.91
2019-04-14T19:55:20.499Z,100997.81
2019-04-14T20:00:23.314Z,101005.30
2019-04-14T20:05:27.521Z,101000.84
2019-04-14T20:10:32.008Z,101006.64
2019-04-14T20:15:37.876Z,101015.14
2019-04-14T20:21:00.526Z,101019.98
2019-04-14T20:26:25.125Z,101023.97
2019-04-14T20:31:39.564Z,101008.89
2019-04-14T20:36:43.262Z,101032.38
2019-04-14T20:41:46.932Z,101033.71
2019-04-14T20:46:50.581Z,101039.50
2019-04-14T20:51:54.264Z,101041.67
2019-04-14T20:56:57.808Z,101044.72
2019-04-14T21:02:19.494Z,101039.83
2019-04-14T21:07:41.087Z,101041.14
2019-04-14T21:12:46.296Z,101045.09
2019-04-14T21:18:03.521Z,101050.81
2019-04-14T21:23:20.554Z,101052.56
2019-04-14T21:28:44.147Z,101059.72
2019-04-14T21:33:55.440Z,101059.80
2019-04-14T21:39:01.460Z,101064.71
2019-04-14T21:44:05.300Z,101059.03
2019-04-14T21:49:08.964Z,101065.64
2019-04-14T21:54:12.666Z,101068.27
2019-04-14T21:59:17.831Z,101076.95
2019-04-14T22:04:29.052Z,101077.52
2019-04-14T22:09:34.176Z,101091.30
2019-04-14T22:14:38.020Z,101096.62
2019-04-14T22:19:41.610Z,101097.06
2019-04-14T22:24:45.188Z,101095.67
2019-04-14T22:29:48.772Z,101104.02
2019-04-14T22:34:52.375Z,101107.07
2019-04-14T22:39:57.043Z,101114.55
2019-04-14T22:45:00.624Z,101112.73
2019-04-14T22:50:05.136Z,101120.61
2019-04-14T22:55:08.676Z,101116.09
2019-04-14T23:00:19.909Z,101118.23
2019-04-14T23:05:25.089Z,101116.91
2019-04-14T23:10:30.480Z,101119.08
2019-04-14T23:15:51.995Z,101116.88
2019-04-14T23:21:12.689Z,101124.34
2019-04-14T23:26:16.359Z,101107.76
2019-04-14T23:31:20.584Z,101107.76
2019-04-14T23:36:24.567Z,101114.64
2019-04-14T23:41:28.989Z,101109.92
2019-04-14T23:46:32.543Z,101104.44
2019-04-14T23:51:36.124Z,101102.01
2019-04-14T23:56:39.707Z,101103.59
